sensor_id;sensor_type;location;lat;lon;timestamp;temperature;humidity
4727;DHT22;2377;51.734;8.950;2023-09-12T00:01:25;20.50;99.90
4727;DHT22;2377;51.734;8.950;2023-09-12T00:03:54;20.50;99.90
4727;DHT22;2377;51.734;8.950;2023-09-12T00:06:21;20.60;99.90
4727;DHT22;2377;51.734;8.950;2023-09-12T00:08:48;20.50;99.90
4727;DHT22;2377;51.734;8.950;2023-09-12T00:11:15;20.50;99.90
4727;DHT22;2377;51.734;8.950;2023-09-12T00:13:42;20.50;99.90
4727;DHT22;2377;51.734;8.950;2023-09-12T00:16:09;20.50;99.90
4727;DHT22;2377;51.734;8.950;2023-09-12T00:18:37;20.50;99.90
4727;DHT22;2377;51.734;8.950;2023-09-12T00:21:05;20.40;99.90
4727;DHT22;2377;51.734;8.950;2023-09-12T00:23:32;20.40;99.90
4727;DHT22;2377;51.734;8.950;2023-09-12T00:26:00;20.30;99.90
4727;DHT22;2377;51.734;8.950;2023-09-12T00:28:27;20.30;99.90
4727;DHT22;2377;51.734;8.950;2023-09-12T00:30:54;20.30;99.90
4727;DHT22;2377;51.734;8.950;2023-09-12T00:33:21;20.20;99.90
4727;DHT22;2377;51.734;8.950;2023-09-12T00:35:49;20.10;99.90
4727;DHT22;2377;51.734;8.950;2023-09-12T00:38:18;20.10;99.90
4727;DHT22;2377;51.734;8.950;2023-09-12T00:40:45;20.10;99.90
4727;DHT22;2377;51.734;8.950;2023-09-12T00:43:13;20.10;99.90
4727;DHT22;2377;51.734;8.950;2023-09-12T00:45:40;20.10;99.90
4727;DHT22;2377;51.734;8.950;2023-09-12T00:48:08;20.00;99.90
4727;DHT22;2377;51.734;8.950;2023-09-12T00:50:36;20.00;99.90
4727;DHT22;2377;51.734;8.950;2023-09-12T00:53:06;19.90;99.90
4727;DHT22;2377;51.734;8.950;2023-09-12T00:55:37;19.90;99.90
4727;DHT22;2377;51.734;8.950;2023-09-12T00:58:09;19.80;99.90
4727;DHT22;2377;51.734;8.950;2023-09-12T01:00:36;19.80;99.90
4727;DHT22;2377;51.734;8.950;2023-09-12T01:03:04;19.80;99.90
4727;DHT22;2377;51.734;8.950;2023-09-12T01:05:31;19.70;99.90
4727;DHT22;2377;51.734;8.950;2023-09-12T01:07:59;19.60;99.90
4727;DHT22;2377;51.734;8.950;2023-09-12T01:10:27;19.60;99.90
4727;DHT22;2377;51.734;8.950;2023-09-12T01:12:56;19.60;99.90
4727;DHT22;2377;51.734;8.950;2023-09-12T01:15:23;19.60;99.90
4727;DHT22;2377;51.734;8.950;2023-09-12T01:17:50;19.60;99.90
4727;DHT22;2377;51.734;8.950;2023-09-12T01:20:24;19.60;99.90
4727;DHT22;2377;51.734;8.950;2023-09-12T01:23:13;19.60;99.90
4727;DHT22;2377;51.734;8.950;2023-09-12T01:28:57;19.50;99.90
4727;DHT22;2377;51.734;8.950;2023-09-12T01:31:27;19.50;99.90
4727;DHT22;2377;51.734;8.950;2023-09-12T01:33:56;19.40;99.90
4727;DHT22;2377;51.734;8.950;2023-09-12T01:36:23;19.40;99.90
4727;DHT22;2377;51.734;8.950;2023-09-12T01:38:51;19.40;99.90
4727;DHT22;2377;51.734;8.950;2023-09-12T01:41:18;19.40;99.90
4727;DHT22;2377;51.734;8.950;2023-09-12T01:43:48;19.30;99.90
4727;DHT22;2377;51.734;8.950;2023-09-12T01:46:20;19.30;99.90
4727;DHT22;2377;51.734;8.950;2023-09-12T01:48:50;19.30;99.90
4727;DHT22;2377;51.734;8.950;2023-09-12T01:51:21;19.30;99.90
4727;DHT22;2377;51.734;8.950;2023-09-12T01:53:51;19.30;99.90
4727;DHT22;2377;51.734;8.950;2023-09-12T01:56:19;19.30;99.90
4727;DHT22;2377;51.734;8.950;2023-09-12T01:58:48;19.30;99.90
4727;DHT22;2377;51.734;8.950;2023-09-12T02:01:15;19.30;99.90
4727;DHT22;2377;51.734;8.950;2023-09-12T02:03:43;19.30;99.90
4727;DHT22;2377;51.734;8.950;2023-09-12T02:06:10;19.40;99.90
4727;DHT22;2377;51.734;8.950;2023-09-12T02:08:37;19.40;99.90
4727;DHT22;2377;51.734;8.950;2023-09-12T02:11:05;19.30;99.90
4727;DHT22;2377;51.734;8.950;2023-09-12T02:13:32;19.30;99.90
4727;DHT22;2377;51.734;8.950;2023-09-12T02:15:59;19.30;99.90
4727;DHT22;2377;51.734;8.950;2023-09-12T02:18:28;19.40;99.90
4727;DHT22;2377;51.734;8.950;2023-09-12T02:20:58;19.40;99.90
4727;DHT22;2377;51.734;8.950;2023-09-12T02:23:25;19.50;99.90
4727;DHT22;2377;51.734;8.950;2023-09-12T02:25:52;19.50;99.90
4727;DHT22;2377;51.734;8.950;2023-09-12T02:28:19;19.50;99.90
4727;DHT22;2377;51.734;8.950;2023-09-12T02:30:46;19.50;99.90
4727;DHT22;2377;51.734;8.950;2023-09-12T02:33:13;19.50;99.90
4727;DHT22;2377;51.734;8.950;2023-09-12T02:35:41;19.40;99.90
4727;DHT22;2377;51.734;8.950;2023-09-12T02:38:09;19.50;99.90
4727;DHT22;2377;51.734;8.950;2023-09-12T02:40:36;19.40;99.90
4727;DHT22;2377;51.734;8.950;2023-09-12T02:43:03;19.50;99.90
4727;DHT22;2377;51.734;8.950;2023-09-12T02:45:31;19.50;99.90
4727;DHT22;2377;51.734;8.950;2023-09-12T02:47:58;19.40;99.90
4727;DHT22;2377;51.734;8.950;2023-09-12T02:50:25;19.40;99.90
4727;DHT22;2377;51.734;8.950;2023-09-12T02:52:53;19.40;99.90
4727;DHT22;2377;51.734;8.950;2023-09-12T02:55:21;19.40;99.90
4727;DHT22;2377;51.734;8.950;2023-09-12T02:57:48;19.40;99.90
4727;DHT22;2377;51.734;8.950;2023-09-12T03:00:15;19.40;99.90
4727;DHT22;2377;51.734;8.950;2023-09-12T03:02:43;19.40;99.90
4727;DHT22;2377;51.734;8.950;2023-09-12T03:05:10;19.40;99.90
4727;DHT22;2377;51.734;8.950;2023-09-12T03:07:37;19.40;99.90
4727;DHT22;2377;51.734;8.950;2023-09-12T03:10:05;19.50;99.90
4727;DHT22;2377;51.734;8.950;2023-09-12T03:12:35;19.50;99.90
4727;DHT22;2377;51.734;8.950;2023-09-12T03:15:03;19.40;99.90
4727;DHT22;2377;51.734;8.950;2023-09-12T03:17:31;19.50;99.90
4727;DHT22;2377;51.734;8.950;2023-09-12T03:19:59;19.50;99.90
4727;DHT22;2377;51.734;8.950;2023-09-12T03:22:26;19.40;1.00
4727;DHT22;2377;51.734;8.950;2023-09-12T03:24:53;19.40;1.00
4727;DHT22;2377;51.734;8.950;2023-09-12T03:27:20;19.40;99.90
4727;DHT22;2377;51.734;8.950;2023-09-12T03:29:49;19.40;99.90
4727;DHT22;2377;51.734;8.950;2023-09-12T03:32:16;19.40;99.90
4727;DHT22;2377;51.734;8.950;2023-09-12T03:34:43;19.40;99.90
4727;DHT22;2377;51.734;8.950;2023-09-12T03:37:10;19.30;99.90
4727;DHT22;2377;51.734;8.950;2023-09-12T03:39:38;19.30;99.90
4727;DHT22;2377;51.734;8.950;2023-09-12T03:42:05;19.30;99.90
4727;DHT22;2377;51.734;8.950;2023-09-12T03:44:32;19.30;99.90
4727;DHT22;2377;51.734;8.950;2023-09-12T03:47:01;19.30;99.90
4727;DHT22;2377;51.734;8.950;2023-09-12T03:49:28;19.10;99.90
4727;DHT22;2377;51.734;8.950;2023-09-12T03:51:55;19.10;99.90
4727;DHT22;2377;51.734;8.950;2023-09-12T03:54:23;19.10;99.90
4727;DHT22;2377;51.734;8.950;2023-09-12T03:56:50;19.10;99.90
4727;DHT22;2377;51.734;8.950;2023-09-12T03:59:17;19.10;99.90
4727;DHT22;2377;51.734;8.950;2023-09-12T04:01:44;19.10;99.90
4727;DHT22;2377;51.734;8.950;2023-09-12T04:04:13;19.10;1.00
4727;DHT22;2377;51.734;8.950;2023-09-12T04:06:40;19.00;1.00
4727;DHT22;2377;51.734;8.950;2023-09-12T04:09:07;19.10;1.00
4727;DHT22;2377;51.734;8.950;2023-09-12T04:11:35;19.10;1.00
4727;DHT22;2377;51.734;8.950;2023-09-12T04:14:02;19.20;1.00
4727;DHT22;2377;51.734;8.950;2023-09-12T04:16:29;19.30;1.00
4727;DHT22;2377;51.734;8.950;2023-09-12T04:18:56;19.30;1.00
4727;DHT22;2377;51.734;8.950;2023-09-12T04:21:25;19.50;1.00
4727;DHT22;2377;51.734;8.950;2023-09-12T04:23:52;19.50;1.00
4727;DHT22;2377;51.734;8.950;2023-09-12T04:26:19;19.50;1.00
4727;DHT22;2377;51.734;8.950;2023-09-12T04:28:46;19.60;1.00
4727;DHT22;2377;51.734;8.950;2023-09-12T04:31:14;19.60;1.00
4727;DHT22;2377;51.734;8.950;2023-09-12T04:33:41;19.50;1.00
4727;DHT22;2377;51.734;8.950;2023-09-12T04:36:08;19.60;1.00
4727;DHT22;2377;51.734;8.950;2023-09-12T04:38:37;19.60;1.00
4727;DHT22;2377;51.734;8.950;2023-09-12T04:41:04;19.60;1.00
4727;DHT22;2377;51.734;8.950;2023-09-12T04:43:32;19.60;1.00
4727;DHT22;2377;51.734;8.950;2023-09-12T04:46:00;19.50;1.00
4727;DHT22;2377;51.734;8.950;2023-09-12T04:48:27;19.60;1.00
4727;DHT22;2377;51.734;8.950;2023-09-12T04:50:55;19.60;1.00
4727;DHT22;2377;51.734;8.950;2023-09-12T04:53:23;19.60;1.00
4727;DHT22;2377;51.734;8.950;2023-09-12T04:55:53;19.60;1.00
4727;DHT22;2377;51.734;8.950;2023-09-12T04:58:23;19.60;1.00
4727;DHT22;2377;51.734;8.950;2023-09-12T05:00:50;19.60;1.00
4727;DHT22;2377;51.734;8.950;2023-09-12T05:03:18;19.70;1.00
4727;DHT22;2377;51.734;8.950;2023-09-12T05:05:46;19.60;1.00
4727;DHT22;2377;51.734;8.950;2023-09-12T05:08:13;19.70;1.00
4727;DHT22;2377;51.734;8.950;2023-09-12T05:10:40;19.70;1.00
4727;DHT22;2377;51.734;8.950;2023-09-12T05:13:09;19.70;1.00
4727;DHT22;2377;51.734;8.950;2023-09-12T05:15:38;19.70;1.00
4727;DHT22;2377;51.734;8.950;2023-09-12T05:18:06;19.70;1.00
4727;DHT22;2377;51.734;8.950;2023-09-12T05:20:33;19.80;1.00
4727;DHT22;2377;51.734;8.950;2023-09-12T05:23:01;19.80;1.00
4727;DHT22;2377;51.734;8.950;2023-09-12T05:25:28;19.80;1.00
4727;DHT22;2377;51.734;8.950;2023-09-12T05:27:56;19.80;1.00
4727;DHT22;2377;51.734;8.950;2023-09-12T05:30:24;19.80;1.00
4727;DHT22;2377;51.734;8.950;2023-09-12T05:32:52;19.90;1.00
4727;DHT22;2377;51.734;8.950;2023-09-12T05:35:19;19.80;1.00
4727;DHT22;2377;51.734;8.950;2023-09-12T05:37:46;19.90;1.00
4727;DHT22;2377;51.734;8.950;2023-09-12T05:40:13;19.90;1.00
4727;DHT22;2377;51.734;8.950;2023-09-12T05:42:49;19.80;1.00
4727;DHT22;2377;51.734;8.950;2023-09-12T05:45:17;19.80;1.00
4727;DHT22;2377;51.734;8.950;2023-09-12T05:51:09;19.90;1.00
4727;DHT22;2377;51.734;8.950;2023-09-12T05:53:49;20.00;1.00
4727;DHT22;2377;51.734;8.950;2023-09-12T05:56:24;20.00;1.00
4727;DHT22;2377;51.734;8.950;2023-09-12T05:59:00;20.00;1.00
4727;DHT22;2377;51.734;8.950;2023-09-12T06:01:55;20.10;1.00
4727;DHT22;2377;51.734;8.950;2023-09-12T06:04:35;20.10;1.00
4727;DHT22;2377;51.734;8.950;2023-09-12T06:07:15;20.10;1.00
4727;DHT22;2377;51.734;8.950;2023-09-12T06:09:48;20.20;1.00
4727;DHT22;2377;51.734;8.950;2023-09-12T06:12:23;20.30;1.00
4727;DHT22;2377;51.734;8.950;2023-09-12T06:15:08;20.40;1.00
4727;DHT22;2377;51.734;8.950;2023-09-12T06:17:55;20.50;1.00
4727;DHT22;2377;51.734;8.950;2023-09-12T06:20:47;20.60;1.00
4727;DHT22;2377;51.734;8.950;2023-09-12T06:23:23;20.60;1.00
4727;DHT22;2377;51.734;8.950;2023-09-12T06:26:12;20.60;1.00
4727;DHT22;2377;51.734;8.950;2023-09-12T06:32:04;20.70;1.00
4727;DHT22;2377;51.734;8.950;2023-09-12T06:34:33;20.80;1.00
4727;DHT22;2377;51.734;8.950;2023-09-12T06:37:25;20.80;1.00
4727;DHT22;2377;51.734;8.950;2023-09-12T06:40:13;20.80;1.00
4727;DHT22;2377;51.734;8.950;2023-09-12T06:42:55;20.90;1.00
4727;DHT22;2377;51.734;8.950;2023-09-12T06:45:25;21.00;1.00
4727;DHT22;2377;51.734;8.950;2023-09-12T06:48:08;21.10;99.90
4727;DHT22;2377;51.734;8.950;2023-09-12T06:50:53;21.10;99.90
4727;DHT22;2377;51.734;8.950;2023-09-12T06:53:50;21.20;99.90
4727;DHT22;2377;51.734;8.950;2023-09-12T06:56:23;21.30;99.90
4727;DHT22;2377;51.734;8.950;2023-09-12T06:59:08;21.40;99.90
4727;DHT22;2377;51.734;8.950;2023-09-12T07:01:49;21.50;99.90
4727;DHT22;2377;51.734;8.950;2023-09-12T07:04:23;21.60;99.90
4727;DHT22;2377;51.734;8.950;2023-09-12T07:06:56;21.60;99.90
4727;DHT22;2377;51.734;8.950;2023-09-12T07:09:32;21.60;99.90
4727;DHT22;2377;51.734;8.950;2023-09-12T07:12:13;21.70;99.90
4727;DHT22;2377;51.734;8.950;2023-09-12T07:14:46;21.70;99.90
4727;DHT22;2377;51.734;8.950;2023-09-12T07:17:28;21.60;99.90
4727;DHT22;2377;51.734;8.950;2023-09-12T07:20:01;21.70;99.90
4727;DHT22;2377;51.734;8.950;2023-09-12T07:22:40;21.80;99.90
4727;DHT22;2377;51.734;8.950;2023-09-12T07:25:18;21.90;99.90
4727;DHT22;2377;51.734;8.950;2023-09-12T07:27:54;21.90;99.90
4727;DHT22;2377;51.734;8.950;2023-09-12T07:30:24;21.90;99.90
4727;DHT22;2377;51.734;8.950;2023-09-12T07:33:01;21.80;99.90
4727;DHT22;2377;51.734;8.950;2023-09-12T07:35:31;21.80;99.90
4727;DHT22;2377;51.734;8.950;2023-09-12T07:38:01;21.80;99.90
4727;DHT22;2377;51.734;8.950;2023-09-12T07:40:37;21.80;99.90
4727;DHT22;2377;51.734;8.950;2023-09-12T07:43:20;21.80;99.90
4727;DHT22;2377;51.734;8.950;2023-09-12T07:45:59;21.90;99.90
4727;DHT22;2377;51.734;8.950;2023-09-12T07:48:30;21.90;99.90
4727;DHT22;2377;51.734;8.950;2023-09-12T07:51:17;22.00;99.90
4727;DHT22;2377;51.734;8.950;2023-09-12T07:53:55;22.00;99.90
4727;DHT22;2377;51.734;8.950;2023-09-12T07:56:45;22.00;99.90
4727;DHT22;2377;51.734;8.950;2023-09-12T07:59:25;22.10;99.90
4727;DHT22;2377;51.734;8.950;2023-09-12T08:02:05;22.30;99.90
4727;DHT22;2377;51.734;8.950;2023-09-12T08:04:40;22.30;99.90
4727;DHT22;2377;51.734;8.950;2023-09-12T08:07:15;22.50;99.90
4727;DHT22;2377;51.734;8.950;2023-09-12T08:09:52;22.50;99.90
4727;DHT22;2377;51.734;8.950;2023-09-12T08:12:30;22.50;99.90
4727;DHT22;2377;51.734;8.950;2023-09-12T08:15:10;22.50;99.90
4727;DHT22;2377;51.734;8.950;2023-09-12T08:17:42;22.50;99.90
4727;DHT22;2377;51.734;8.950;2023-09-12T08:20:11;22.60;99.90
4727;DHT22;2377;51.734;8.950;2023-09-12T08:22:44;22.60;99.90
4727;DHT22;2377;51.734;8.950;2023-09-12T08:25:26;22.70;99.90
4727;DHT22;2377;51.734;8.950;2023-09-12T08:27:59;22.90;99.90
4727;DHT22;2377;51.734;8.950;2023-09-12T08:30:28;22.90;99.90
4727;DHT22;2377;51.734;8.950;2023-09-12T08:33:03;23.00;99.90
4727;DHT22;2377;51.734;8.950;2023-09-12T08:35:33;23.00;99.90
4727;DHT22;2377;51.734;8.950;2023-09-12T08:38:04;23.10;99.90
4727;DHT22;2377;51.734;8.950;2023-09-12T08:40:34;23.40;99.90
4727;DHT22;2377;51.734;8.950;2023-09-12T08:43:09;23.50;99.90
4727;DHT22;2377;51.734;8.950;2023-09-12T08:45:42;23.30;99.90
4727;DHT22;2377;51.734;8.950;2023-09-12T08:48:18;23.20;99.90
4727;DHT22;2377;51.734;8.950;2023-09-12T08:50:52;23.10;99.90
4727;DHT22;2377;51.734;8.950;2023-09-12T08:53:22;22.90;99.90
4727;DHT22;2377;51.734;8.950;2023-09-12T08:55:55;22.60;99.90
4727;DHT22;2377;51.734;8.950;2023-09-12T08:58:46;22.50;99.90
4727;DHT22;2377;51.734;8.950;2023-09-12T09:01:26;22.30;99.90
4727;DHT22;2377;51.734;8.950;2023-09-12T09:04:13;22.30;99.90
4727;DHT22;2377;51.734;8.950;2023-09-12T09:06:59;22.30;99.90
4727;DHT22;2377;51.734;8.950;2023-09-12T09:09:35;22.10;99.90
4727;DHT22;2377;51.734;8.950;2023-09-12T09:12:09;22.00;99.90
4727;DHT22;2377;51.734;8.950;2023-09-12T09:14:45;22.00;99.90
4727;DHT22;2377;51.734;8.950;2023-09-12T09:17:22;22.10;99.90
4727;DHT22;2377;51.734;8.950;2023-09-12T09:20:01;22.30;99.90
4727;DHT22;2377;51.734;8.950;2023-09-12T09:23:00;22.40;99.90
4727;DHT22;2377;51.734;8.950;2023-09-12T09:25:52;22.50;99.90
4727;DHT22;2377;51.734;8.950;2023-09-12T09:28:25;22.50;99.90
4727;DHT22;2377;51.734;8.950;2023-09-12T09:31:10;22.80;99.90
4727;DHT22;2377;51.734;8.950;2023-09-12T09:33:56;23.10;99.90
4727;DHT22;2377;51.734;8.950;2023-09-12T09:36:50;23.40;99.90
4727;DHT22;2377;51.734;8.950;2023-09-12T09:39:28;23.60;99.90
4727;DHT22;2377;51.734;8.950;2023-09-12T09:42:03;23.60;99.90
4727;DHT22;2377;51.734;8.950;2023-09-12T09:44:53;23.70;99.90
4727;DHT22;2377;51.734;8.950;2023-09-12T09:47:26;23.90;99.90
4727;DHT22;2377;51.734;8.950;2023-09-12T09:49:58;24.00;99.90
4727;DHT22;2377;51.734;8.950;2023-09-12T09:55:24;24.00;99.90
4727;DHT22;2377;51.734;8.950;2023-09-12T09:57:55;24.00;99.90
4727;DHT22;2377;51.734;8.950;2023-09-12T10:00:53;23.90;99.90
4727;DHT22;2377;51.734;8.950;2023-09-12T10:03:26;24.00;99.90
4727;DHT22;2377;51.734;8.950;2023-09-12T10:06:26;24.10;99.90
4727;DHT22;2377;51.734;8.950;2023-09-12T10:09:11;24.10;99.90
4727;DHT22;2377;51.734;8.950;2023-09-12T10:11:47;24.30;76.90
4727;DHT22;2377;51.734;8.950;2023-09-12T10:14:21;24.40;99.90
4727;DHT22;2377;51.734;8.950;2023-09-12T10:17:06;24.50;99.90
4727;DHT22;2377;51.734;8.950;2023-09-12T10:19:51;24.80;99.90
4727;DHT22;2377;51.734;8.950;2023-09-12T10:22:32;25.00;54.90
4727;DHT22;2377;51.734;8.950;2023-09-12T10:25:11;25.00;75.60
4727;DHT22;2377;51.734;8.950;2023-09-12T10:27:44;24.90;63.80
4727;DHT22;2377;51.734;8.950;2023-09-12T10:30:18;24.60;65.90
4727;DHT22;2377;51.734;8.950;2023-09-12T10:32:55;24.50;68.60
4727;DHT22;2377;51.734;8.950;2023-09-12T10:35:41;24.20;67.70
4727;DHT22;2377;51.734;8.950;2023-09-12T10:38:27;24.00;71.80
4727;DHT22;2377;51.734;8.950;2023-09-12T10:41:15;23.90;90.10
4727;DHT22;2377;51.734;8.950;2023-09-12T10:43:49;23.80;99.90
4727;DHT22;2377;51.734;8.950;2023-09-12T10:46:34;23.60;99.90
4727;DHT22;2377;51.734;8.950;2023-09-12T10:49:14;23.60;99.90
4727;DHT22;2377;51.734;8.950;2023-09-12T10:52:01;23.50;99.90
4727;DHT22;2377;51.734;8.950;2023-09-12T10:54:59;23.30;99.90
4727;DHT22;2377;51.734;8.950;2023-09-12T10:57:33;23.30;99.90
4727;DHT22;2377;51.734;8.950;2023-09-12T11:00:38;23.50;99.90
4727;DHT22;2377;51.734;8.950;2023-09-12T11:03:39;23.50;99.90
4727;DHT22;2377;51.734;8.950;2023-09-12T11:06:23;23.50;99.90
4727;DHT22;2377;51.734;8.950;2023-09-12T11:09:22;23.70;99.90
4727;DHT22;2377;51.734;8.950;2023-09-12T11:12:02;24.00;99.90
4727;DHT22;2377;51.734;8.950;2023-09-12T11:14:36;24.30;99.50
4727;DHT22;2377;51.734;8.950;2023-09-12T11:17:34;24.40;53.40
4727;DHT22;2377;51.734;8.950;2023-09-12T11:20:19;24.40;66.10
4727;DHT22;2377;51.734;8.950;2023-09-12T11:23:10;24.40;45.60
4727;DHT22;2377;51.734;8.950;2023-09-12T11:25:41;24.40;47.90
4727;DHT22;2377;51.734;8.950;2023-09-12T11:28:16;24.40;57.50
4727;DHT22;2377;51.734;8.950;2023-09-12T11:30:57;24.60;60.10
4727;DHT22;2377;51.734;8.950;2023-09-12T11:33:27;24.60;53.60
4727;DHT22;2377;51.734;8.950;2023-09-12T11:35:57;24.80;83.10
4727;DHT22;2377;51.734;8.950;2023-09-12T11:38:31;24.90;94.70
4727;DHT22;2377;51.734;8.950;2023-09-12T11:41:04;24.90;99.50
4727;DHT22;2377;51.734;8.950;2023-09-12T11:43:33;25.00;96.70
4727;DHT22;2377;51.734;8.950;2023-09-12T11:46:08;25.20;78.40
4727;DHT22;2377;51.734;8.950;2023-09-12T11:48:37;25.30;99.90
4727;DHT22;2377;51.734;8.950;2023-09-12T11:51:15;25.40;95.80
4727;DHT22;2377;51.734;8.950;2023-09-12T11:53:50;25.60;98.30
4727;DHT22;2377;51.734;8.950;2023-09-12T11:56:39;25.70;63.80
4727;DHT22;2377;51.734;8.950;2023-09-12T11:59:17;25.80;65.20
4727;DHT22;2377;51.734;8.950;2023-09-12T12:01:49;25.80;66.30
4727;DHT22;2377;51.734;8.950;2023-09-12T12:04:20;25.80;67.30
4727;DHT22;2377;51.734;8.950;2023-09-12T12:07:01;25.60;79.80
4727;DHT22;2377;51.734;8.950;2023-09-12T12:09:34;25.50;83.60
4727;DHT22;2377;51.734;8.950;2023-09-12T12:12:12;25.60;98.70
4727;DHT22;2377;51.734;8.950;2023-09-12T12:14:42;25.60;95.00
4727;DHT22;2377;51.734;8.950;2023-09-12T12:17:17;25.80;98.80
4727;DHT22;2377;51.734;8.950;2023-09-12T12:19:47;25.80;85.00
4727;DHT22;2377;51.734;8.950;2023-09-12T12:22:21;25.90;91.80
4727;DHT22;2377;51.734;8.950;2023-09-12T12:24:51;25.90;78.90
4727;DHT22;2377;51.734;8.950;2023-09-12T12:27:27;25.90;85.50
4727;DHT22;2377;51.734;8.950;2023-09-12T12:30:03;25.80;80.70
4727;DHT22;2377;51.734;8.950;2023-09-12T12:32:42;25.90;96.00
4727;DHT22;2377;51.734;8.950;2023-09-12T12:35:20;26.00;70.20
4727;DHT22;2377;51.734;8.950;2023-09-12T12:37:58;26.10;49.80
4727;DHT22;2377;51.734;8.950;2023-09-12T12:40:27;26.00;40.80
4727;DHT22;2377;51.734;8.950;2023-09-12T12:43:19;26.00;73.80
4727;DHT22;2377;51.734;8.950;2023-09-12T12:45:57;26.00;80.10
4727;DHT22;2377;51.734;8.950;2023-09-12T12:48:43;26.10;54.20
4727;DHT22;2377;51.734;8.950;2023-09-12T12:51:17;26.10;72.50
4727;DHT22;2377;51.734;8.950;2023-09-12T12:53:50;26.10;53.80
4727;DHT22;2377;51.734;8.950;2023-09-12T12:56:31;26.10;56.90
4727;DHT22;2377;51.734;8.950;2023-09-12T12:59:05;26.10;49.60
4727;DHT22;2377;51.734;8.950;2023-09-12T13:01:41;26.20;34.30
4727;DHT22;2377;51.734;8.950;2023-09-12T13:04:19;26.30;36.20
4727;DHT22;2377;51.734;8.950;2023-09-12T13:06:54;26.30;30.10
4727;DHT22;2377;51.734;8.950;2023-09-12T13:09:23;26.30;10.70
4727;DHT22;2377;51.734;8.950;2023-09-12T13:11:53;26.10;18.70
4727;DHT22;2377;51.734;8.950;2023-09-12T13:14:33;26.00;18.80
4727;DHT22;2377;51.734;8.950;2023-09-12T13:17:11;25.90;34.60
4727;DHT22;2377;51.734;8.950;2023-09-12T13:19:45;25.90;30.20
4727;DHT22;2377;51.734;8.950;2023-09-12T13:22:13;25.80;48.90
4727;DHT22;2377;51.734;8.950;2023-09-12T13:24:42;25.80;61.80
4727;DHT22;2377;51.734;8.950;2023-09-12T13:27:14;25.70;79.50
4727;DHT22;2377;51.734;8.950;2023-09-12T13:29:52;25.70;40.40
4727;DHT22;2377;51.734;8.950;2023-09-12T13:32:25;25.60;83.40
4727;DHT22;2377;51.734;8.950;2023-09-12T13:35:07;25.80;73.60
4727;DHT22;2377;51.734;8.950;2023-09-12T13:37:36;25.80;57.20
4727;DHT22;2377;51.734;8.950;2023-09-12T13:40:13;25.70;62.00
4727;DHT22;2377;51.734;8.950;2023-09-12T13:42:47;25.50;59.20
4727;DHT22;2377;51.734;8.950;2023-09-12T13:45:20;25.50;63.60
4727;DHT22;2377;51.734;8.950;2023-09-12T13:47:52;25.40;78.20
4727;DHT22;2377;51.734;8.950;2023-09-12T13:50:25;25.40;74.30
4727;DHT22;2377;51.734;8.950;2023-09-12T13:52:58;25.50;64.50
4727;DHT22;2377;51.734;8.950;2023-09-12T13:55:30;25.40;68.60
4727;DHT22;2377;51.734;8.950;2023-09-12T13:58:06;25.40;83.50
4727;DHT22;2377;51.734;8.950;2023-09-12T14:00:38;25.50;76.90
4727;DHT22;2377;51.734;8.950;2023-09-12T14:03:12;25.40;88.10
4727;DHT22;2377;51.734;8.950;2023-09-12T14:05:46;25.40;71.70
4727;DHT22;2377;51.734;8.950;2023-09-12T14:08:15;25.50;63.60
4727;DHT22;2377;51.734;8.950;2023-09-12T14:10:44;25.50;55.90
4727;DHT22;2377;51.734;8.950;2023-09-12T14:13:11;25.50;75.00
4727;DHT22;2377;51.734;8.950;2023-09-12T14:15:40;25.60;56.90
4727;DHT22;2377;51.734;8.950;2023-09-12T14:18:07;25.70;57.40
4727;DHT22;2377;51.734;8.950;2023-09-12T14:20:34;25.90;39.10
4727;DHT22;2377;51.734;8.950;2023-09-12T14:23:01;25.90;32.00
4727;DHT22;2377;51.734;8.950;2023-09-12T14:25:29;25.80;34.10
4727;DHT22;2377;51.734;8.950;2023-09-12T14:27:56;25.80;38.80
4727;DHT22;2377;51.734;8.950;2023-09-12T14:30:23;25.80;45.10
4727;DHT22;2377;51.734;8.950;2023-09-12T14:33:01;25.90;41.40
4727;DHT22;2377;51.734;8.950;2023-09-12T14:35:29;26.00;46.60
4727;DHT22;2377;51.734;8.950;2023-09-12T14:37:56;26.10;33.00
4727;DHT22;2377;51.734;8.950;2023-09-12T14:40:24;26.10;34.00
4727;DHT22;2377;51.734;8.950;2023-09-12T14:42:52;26.10;48.70
4727;DHT22;2377;51.734;8.950;2023-09-12T14:45:19;26.20;43.70
4727;DHT22;2377;51.734;8.950;2023-09-12T14:47:47;26.10;41.80
4727;DHT22;2377;51.734;8.950;2023-09-12T14:50:16;26.10;44.70
4727;DHT22;2377;51.734;8.950;2023-09-12T14:52:43;26.20;36.80
4727;DHT22;2377;51.734;8.950;2023-09-12T14:55:10;26.30;44.00
4727;DHT22;2377;51.734;8.950;2023-09-12T14:57:37;26.30;36.00
4727;DHT22;2377;51.734;8.950;2023-09-12T15:00:06;26.30;28.90
4727;DHT22;2377;51.734;8.950;2023-09-12T15:02:34;26.30;42.80
4727;DHT22;2377;51.734;8.950;2023-09-12T15:05:02;26.30;28.30
4727;DHT22;2377;51.734;8.950;2023-09-12T15:07:31;26.30;38.00
4727;DHT22;2377;51.734;8.950;2023-09-12T15:09:59;26.30;35.80
4727;DHT22;2377;51.734;8.950;2023-09-12T15:12:26;26.30;45.40
4727;DHT22;2377;51.734;8.950;2023-09-12T15:14:53;26.30;59.50
4727;DHT22;2377;51.734;8.950;2023-09-12T15:17:20;26.20;63.70
4727;DHT22;2377;51.734;8.950;2023-09-12T15:19:48;26.20;69.70
4727;DHT22;2377;51.734;8.950;2023-09-12T15:22:15;26.10;77.40
4727;DHT22;2377;51.734;8.950;2023-09-12T15:24:43;26.10;82.30
4727;DHT22;2377;51.734;8.950;2023-09-12T15:27:10;26.10;77.80
4727;DHT22;2377;51.734;8.950;2023-09-12T15:29:38;26.10;77.90
4727;DHT22;2377;51.734;8.950;2023-09-12T15:32:05;26.10;81.30
4727;DHT22;2377;51.734;8.950;2023-09-12T15:34:32;26.10;81.50
4727;DHT22;2377;51.734;8.950;2023-09-12T15:37:08;26.10;62.80
4727;DHT22;2377;51.734;8.950;2023-09-12T15:39:36;26.10;79.80
4727;DHT22;2377;51.734;8.950;2023-09-12T15:42:06;26.10;67.30
4727;DHT22;2377;51.734;8.950;2023-09-12T15:44:33;26.10;54.30
4727;DHT22;2377;51.734;8.950;2023-09-12T15:47:00;26.10;66.60
4727;DHT22;2377;51.734;8.950;2023-09-12T15:49:28;26.10;59.90
4727;DHT22;2377;51.734;8.950;2023-09-12T15:51:55;26.10;74.40
4727;DHT22;2377;51.734;8.950;2023-09-12T15:54:23;26.20;69.20
4727;DHT22;2377;51.734;8.950;2023-09-12T15:56:50;26.20;55.00
4727;DHT22;2377;51.734;8.950;2023-09-12T15:59:19;26.20;62.20
4727;DHT22;2377;51.734;8.950;2023-09-12T16:01:47;26.10;59.10
4727;DHT22;2377;51.734;8.950;2023-09-12T16:04:14;26.10;50.10
4727;DHT22;2377;51.734;8.950;2023-09-12T16:06:41;26.10;56.10
4727;DHT22;2377;51.734;8.950;2023-09-12T16:09:08;26.00;61.10
4727;DHT22;2377;51.734;8.950;2023-09-12T16:11:35;25.90;75.90
4727;DHT22;2377;51.734;8.950;2023-09-12T16:14:03;25.80;83.10
4727;DHT22;2377;51.734;8.950;2023-09-12T16:16:31;25.80;77.10
4727;DHT22;2377;51.734;8.950;2023-09-12T16:18:59;25.80;99.90
4727;DHT22;2377;51.734;8.950;2023-09-12T16:21:26;25.80;96.30
4727;DHT22;2377;51.734;8.950;2023-09-12T16:23:54;25.70;99.90
4727;DHT22;2377;51.734;8.950;2023-09-12T16:26:21;25.70;80.00
4727;DHT22;2377;51.734;8.950;2023-09-12T16:28:49;25.60;83.20
4727;DHT22;2377;51.734;8.950;2023-09-12T16:31:17;25.50;91.40
4727;DHT22;2377;51.734;8.950;2023-09-12T16:33:46;25.30;99.90
4727;DHT22;2377;51.734;8.950;2023-09-12T16:36:13;25.10;99.90
4727;DHT22;2377;51.734;8.950;2023-09-12T16:38:40;25.10;99.90
4727;DHT22;2377;51.734;8.950;2023-09-12T16:41:08;25.00;99.90
4727;DHT22;2377;51.734;8.950;2023-09-12T16:43:35;24.90;99.90
4727;DHT22;2377;51.734;8.950;2023-09-12T16:46:02;24.80;99.90
4727;DHT22;2377;51.734;8.950;2023-09-12T16:48:29;24.60;99.90
4727;DHT22;2377;51.734;8.950;2023-09-12T16:50:58;24.50;99.90
4727;DHT22;2377;51.734;8.950;2023-09-12T16:53:25;24.40;99.90